Time;durP1;ratioP1;P1;durP2;ratioP2;P2;SDS_P1;SDS_P2;PMS_P1;PMS_P2;Temp;Humidity;BMP_temperature;BMP_pressure;BME280_temperature;BME280_humidity;BME280_pressure;Samples;Min_cycle;Max_cycle;Signal;HPM_P1;HPM_P2
2021/01/21 00:00:02;;;;;;;14.73;6.55;;;;;;;4.63;82.61;99091.06;5073595;28;20059;-69
2021/01/21 00:02:39;;;;;;;13.98;6.53;;;;;;;4.59;82.70;99094.34;5073565;28;20048;-69
2021/01/21 00:05:08;;;;;;;13.80;7.05;;;;;;;4.68;82.40;99085.22;5073644;28;20044;-69
2021/01/21 00:07:37;;;;;;;12.40;5.85;;;;;;;4.66;82.26;99080.97;5073642;28;20066;-69
2021/01/21 00:10:07;;;;;;;14.75;6.35;;;;;;;4.66;82.05;99083.50;5071933;28;20078;-69
2021/01/21 00:12:36;;;;;;;12.18;5.55;;;;;;;4.63;82.27;99080.94;5073599;28;20056;-69
2021/01/21 00:15:05;;;;;;;15.40;5.88;;;;;;;4.66;82.52;99070.84;5073755;28;20059;-69
2021/01/21 00:17:33;;;;;;;15.40;6.37;;;;;;;4.69;82.04;99075.97;5073502;28;20048;-68
2021/01/21 00:20:01;;;;;;;15.00;6.60;;;;;;;4.64;81.84;99068.31;5073738;28;20057;-69
2021/01/21 00:22:29;;;;;;;13.23;6.18;;;;;;;4.63;82.34;99065.78;5073736;28;20063;-69
2021/01/21 00:24:56;;;;;;;11.73;5.30;;;;;;;4.67;81.81;99070.03;5073462;28;20460;-69
2021/01/21 00:27:26;;;;;;;11.63;4.35;;;;;;;4.66;82.02;99065.81;5073735;28;20398;-70
2021/01/21 00:29:54;;;;;;;10.30;5.43;;;;;;;4.71;82.27;99064.19;5073369;28;20098;-69
2021/01/21 00:32:23;;;;;;;14.15;6.88;;;;;;;4.70;82.28;99067.56;5073374;28;20048;-69
2021/01/21 00:34:51;;;;;;;17.00;6.63;;;;;;;4.69;81.85;99060.78;5073871;28;20053;-70
2021/01/21 00:37:19;;;;;;;14.40;6.63;;;;;;;4.68;81.86;99059.94;5073297;28;20131;-69
2021/01/21 00:39:47;;;;;;;15.90;6.63;;;;;;;4.69;81.81;99058.28;5073238;28;20470;-69
2021/01/21 00:42:15;;;;;;;13.75;6.85;;;;;;;4.73;81.79;99057.47;5073489;28;20582;-69
2021/01/21 00:44:43;;;;;;;9.55;4.50;;;;;;;4.66;81.20;99059.09;5073179;28;20052;-69
2021/01/21 00:47:11;;;;;;;14.48;6.95;;;;;;;4.65;81.29;99059.06;5073164;28;20123;-69
2021/01/21 00:49:39;;;;;;;14.55;6.45;;;;;;;4.63;81.73;99055.69;5073210;28;20391;-69
2021/01/21 00:52:08;;;;;;;9.75;4.68;;;;;;;4.63;81.36;99045.56;5071999;28;20102;-70
2021/01/21 00:54:36;;;;;;;13.57;6.03;;;;;;;4.63;81.25;99058.22;5073135;28;20051;-69
2021/01/21 00:57:05;;;;;;;10.65;5.28;;;;;;;4.61;81.05;99053.13;5071931;28;20494;-69
2021/01/21 00:59:34;;;;;;;11.75;5.90;;;;;;;4.62;81.50;99038.81;5073142;28;20132;-69
2021/01/21 01:02:04;;;;;;;15.50;5.88;;;;;;;4.63;81.29;99043.88;5071890;28;20056;-70
2021/01/21 01:04:32;;;;;;;14.33;5.77;;;;;;;4.68;81.17;99041.41;5072069;28;20440;-69
2021/01/21 01:07:05;;;;;;;14.20;6.47;;;;;;;4.75;81.17;99045.72;5071864;28;20444;-69
2021/01/21 01:09:35;;;;;;;12.15;5.43;;;;;;;4.70;81.16;99037.25;5073045;28;20071;-69
2021/01/21 01:12:04;;;;;;;10.68;5.28;;;;;;;4.68;80.91;99036.34;5071742;28;20060;-68
2021/01/21 01:14:36;;;;;;;12.93;5.78;;;;;;;4.71;80.87;99041.44;5071874;28;20071;-69
2021/01/21 01:17:05;;;;;;;17.02;6.78;;;;;;;4.71;81.24;99036.38;5071976;28;20044;-69
2021/01/21 01:19:41;;;;;;;16.00;5.65;;;;;;;4.67;81.06;99037.19;5071846;28;20056;-68
2021/01/21 01:22:13;;;;;;;18.00;6.53;;;;;;;4.52;80.88;98999.94;5074987;28;20102;-69
2021/01/21 01:24:41;;;;;;;14.57;6.18;;;;;;;4.75;80.74;99033.91;5075268;28;20116;-69
2021/01/21 01:27:08;;;;;;;12.60;6.13;;;;;;;4.76;80.95;99039.81;5075322;28;20048;-69
2021/01/21 01:29:40;;;;;;;10.40;4.80;;;;;;;4.74;80.24;99038.97;5076417;28;20118;-69
2021/01/21 01:32:11;;;;;;;13.45;5.95;;;;;;;4.73;80.56;99035.56;5075452;28;20052;-69
2021/01/21 01:34:45;;;;;;;13.23;6.10;;;;;;;4.66;80.79;99035.47;5075154;28;20044;-69
2021/01/21 01:37:17;;;;;;;17.63;7.43;;;;;;;4.70;80.40;99022.06;5076321;28;20048;-68
2021/01/21 01:39:51;;;;;;;13.40;5.72;;;;;;;4.72;81.02;99031.38;5076216;28;20044;-68
2021/01/21 01:42:32;;;;;;;5.90;3.03;;;;;;;4.76;80.24;99022.13;5075062;28;20524;-68
2021/01/21 01:45:03;;;;;;;13.02;5.43;;;;;;;4.78;80.86;99025.53;5091721;28;20406;-69
2021/01/21 01:47:33;;;;;;;13.57;6.17;;;;;;;4.75;80.35;99010.34;5075507;28;20119;-69
2021/01/21 01:50:01;;;;;;;10.65;5.10;;;;;;;4.81;79.88;99017.97;5075329;28;20509;-68
2021/01/21 01:52:31;;;;;;;15.10;6.18;;;;;;;4.72;80.01;99010.31;5074873;28;20582;-68
2021/01/21 01:55:15;;;;;;;10.70;5.13;;;;;;;4.65;80.00;99008.53;5091604;28;20048;-69
2021/01/21 01:57:56;;;;;;;10.43;5.35;;;;;;;4.74;80.72;99008.63;5091358;28;20044;-68
2021/01/21 02:00:32;;;;;;;12.52;5.78;;;;;;;4.75;80.51;98997.72;5091688;28;20133;-69
2021/01/21 02:03:06;;;;;;;11.02;5.07;;;;;;;4.51;80.38;98969.63;5075766;28;20048;-70
2021/01/21 02:05:41;;;;;;;11.73;5.07;;;;;;;4.64;80.83;99004.28;5074579;28;20056;-69
2021/01/21 02:08:08;;;;;;;10.73;4.22;;;;;;;4.75;80.82;98998.53;5074782;28;20052;-68
2021/01/21 02:10:37;;;;;;;10.20;4.40;;;;;;;4.79;80.54;98999.44;5075639;28;20048;-69
2021/01/21 02:13:32;;;;;;;12.63;5.10;;;;;;;4.69;80.43;98990.03;5074493;28;20049;-68
2021/01/21 02:16:16;;;;;;;13.02;5.93;;;;;;;3.53;79.62;98796.78;5075516;28;20052;-68
2021/01/21 02:18:55;;;;;;;10.60;5.22;;;;;;;4.64;79.76;98981.56;5074654;28;20486;-69
2021/01/21 02:21:57;;;;;;;11.02;4.47;;;;;;;4.78;80.44;98974.13;5075737;28;20537;-69
2021/01/21 02:24:57;;;;;;;10.35;4.68;;;;;;;4.73;79.79;98976.59;5075681;28;20052;-69
2021/01/21 02:27:38;;;;;;;9.07;4.50;;;;;;;4.65;80.36;98958.81;5066520;28;20054;-68
2021/01/21 02:30:14;;;;;;;9.13;4.43;;;;;;;4.74;80.02;98973.25;5075360;28;20056;-68
2021/01/21 02:32:54;;;;;;;12.00;4.75;;;;;;;4.79;80.04;98961.50;5073364;28;20071;-68
2021/01/21 02:35:29;;;;;;;11.93;4.88;;;;;;;4.86;80.02;98953.16;5074306;28;20541;-68
2021/01/21 02:38:00;;;;;;;10.88;4.82;;;;;;;4.66;79.58;98932.72;5075090;28;20045;-68
2021/01/21 02:40:32;;;;;;;10.73;4.70;;;;;;;4.79;79.79;98958.97;5073945;28;20045;-68
2021/01/21 02:43:11;;;;;;;9.93;5.15;;;;;;;4.73;79.25;98953.84;5075302;28;20053;-69
2021/01/21 02:45:47;;;;;;;6.05;3.00;;;;;;;4.72;79.88;98952.16;5074108;28;20044;-69
2021/01/21 02:48:15;;;;;;;8.48;3.78;;;;;;;4.74;79.44;98942.91;5074869;28;20498;-68
2021/01/21 02:51:03;;;;;;;11.30;4.13;;;;;;;4.83;79.42;98948.06;5090897;28;20554;-68
2021/01/21 02:53:35;;;;;;;9.85;3.53;;;;;;;4.71;79.55;98932.78;5073662;28;20055;-68
2021/01/21 02:56:09;;;;;;;6.78;3.55;;;;;;;4.91;79.11;98946.47;5074806;28;20052;-68
2021/01/21 02:58:55;;;;;;;10.27;4.65;;;;;;;4.86;78.99;98948.09;5073363;28;20118;-68
2021/01/21 03:01:26;;;;;;;10.68;4.93;;;;;;;4.82;79.33;98948.91;5074687;28;20051;-68
2021/01/21 03:04:01;;;;;;;10.23;4.72;;;;;;;4.69;79.74;98954.66;5073581;28;20064;-69
2021/01/21 03:06:30;;;;;;;;;;;;;;;4.65;79.42;98958.00;5075014;28;20044;-68
2021/01/21 03:09:00;;;;;;;8.65;4.63;;;;;;;4.83;79.79;98953.13;5074530;28;19920;-68
2021/01/21 03:11:30;;;;;;;12.45;3.78;;;;;;;4.83;79.45;98952.25;5073353;28;20506;-68
2021/01/21 03:14:03;;;;;;;14.13;4.97;;;;;;;4.72;79.03;98934.47;5074705;28;20045;-68
2021/01/21 03:16:39;;;;;;;10.15;4.47;;;;;;;4.81;79.19;98944.69;5073267;28;20040;-68
2021/01/21 03:19:07;;;;;;;8.60;4.28;;;;;;;4.79;79.39;98943.81;5073145;28;20048;-68
2021/01/21 03:21:36;;;;;;;10.90;4.68;;;;;;;4.78;79.31;98934.53;5073025;28;20052;-68
2021/01/21 03:24:12;;;;;;;9.00;4.47;;;;;;;4.84;79.21;98938.81;5073044;28;20079;-68
2021/01/21 03:26:54;;;;;;;9.15;3.97;;;;;;;4.82;79.09;98943.84;5072975;28;20087;-68
2021/01/21 03:29:22;;;;;;;10.88;4.85;;;;;;;4.81;78.96;98947.22;5074453;28;20494;-68
2021/01/21 03:31:51;;;;;;;11.53;4.47;;;;;;;4.80;79.01;98932.84;5072898;28;20048;-68
2021/01/21 03:34:25;;;;;;;7.63;3.75;;;;;;;4.79;79.23;98941.28;5073116;28;20042;-68
2021/01/21 03:37:03;;;;;;;10.57;3.83;;;;;;;4.89;79.25;98938.03;5073103;28;20483;-68
2021/01/21 03:39:35;;;;;;;7.80;4.05;;;;;;;4.89;79.20;98940.56;5073040;28;20490;-68
2021/01/21 03:42:17;;;;;;;9.20;4.20;;;;;;;4.86;78.76;98927.88;5072726;28;20094;-68
2021/01/21 03:45:08;;;;;;;9.82;4.20;;;;;;;4.86;79.18;98939.66;5073091;28;20067;-68
2021/01/21 03:47:36;;;;;;;6.20;2.85;;;;;;;4.84;78.40;98934.59;5072660;28;20048;-69
2021/01/21 03:50:07;;;;;;;9.43;4.20;;;;;;;4.80;78.58;98932.84;5072647;28;20056;-68
2021/01/21 03:52:39;;;;;;;8.65;4.20;;;;;;;4.72;79.08;98939.53;5072610;28;20127;-69
2021/01/21 03:55:12;;;;;;;7.88;3.92;;;;;;;4.69;78.78;98934.44;5072658;28;20046;-68
2021/01/21 03:57:44;;;;;;;8.80;4.45;;;;;;;4.66;78.95;98932.72;5072375;28;20052;-69
2021/01/21 04:00:33;;;;;;;9.85;3.60;;;;;;;4.71;78.84;98925.19;5073508;28;20048;-68
2021/01/21 04:03:01;;;;;;;10.27;3.95;;;;;;;4.73;78.86;98918.47;5072613;28;20102;-68
2021/01/21 04:05:46;;;;;;;8.55;3.38;;;;;;;4.80;79.16;98917.69;5074009;28;20052;-68
2021/01/21 04:08:19;;;;;;;8.80;4.00;;;;;;;4.91;78.97;98921.19;5072419;28;20041;-68
2021/01/21 04:10:54;;;;;;;7.05;3.85;;;;;;;4.81;78.76;98924.47;5072589;28;20056;-68
2021/01/21 04:13:46;;;;;;;10.48;4.13;;;;;;;4.89;78.44;98896.72;5073574;28;20547;-68
2021/01/21 04:16:18;;;;;;;9.93;3.85;;;;;;;4.90;78.28;98918.63;5072397;28;20053;-68
2021/01/21 04:18:47;;;;;;;6.88;2.97;;;;;;;4.93;78.80;98919.53;5072824;28;20036;-68
2021/01/21 04:21:18;;;;;;;7.35;3.25;;;;;;;5.07;78.46;98920.47;5072359;28;20406;-68
2021/01/21 04:23:51;;;;;;;8.55;3.97;;;;;;;5.04;78.22;98917.91;5073380;28;20402;-68
2021/01/21 04:26:31;;;;;;;8.27;3.70;;;;;;;5.06;77.99;98911.19;5072613;28;20141;-68
2021/01/21 04:29:01;;;;;;;7.57;3.38;;;;;;;5.06;78.21;98908.66;5072158;28;20072;-68
2021/01/21 04:31:28;;;;;;;7.68;3.90;;;;;;;5.07;77.80;98904.47;5089217;28;20083;-68
2021/01/21 04:34:04;;;;;;;8.48;3.28;;;;;;;5.08;78.06;98908.69;5072138;28;20052;-68
2021/01/21 04:36:34;;;;;;;9.65;4.05;;;;;;;5.06;77.63;98910.38;5089256;28;20542;-68
2021/01/21 04:39:04;;;;;;;7.60;2.73;;;;;;;5.04;77.49;98907.00;5072102;28;20106;-68
2021/01/21 04:41:34;;;;;;;9.27;3.33;;;;;;;5.03;78.08;98920.44;5072398;28;20060;-69
2021/01/21 04:44:11;;;;;;;9.10;3.80;;;;;;;4.95;77.91;98907.72;5072020;28;20121;-68
2021/01/21 04:46:50;;;;;;;12.20;4.10;;;;;;;4.96;77.57;98904.38;5073303;28;20053;-68
2021/01/21 04:49:18;;;;;;;8.40;3.65;;;;;;;4.86;77.65;98915.25;5072031;28;20054;-69
2021/01/21 04:51:55;;;;;;;7.30;3.65;;;;;;;4.75;78.27;98914.31;5072314;28;20083;-68
2021/01/21 04:54:39;;;;;;;11.18;4.10;;;;;;;4.70;77.99;98915.94;5072030;28;20097;-70
2021/01/21 04:57:15;;;;;;;10.48;3.88;;;;;;;4.75;78.25;98916.81;5092650;28;20048;-69
2021/01/21 04:59:50;;;;;;;10.50;3.88;;;;;;;4.74;78.77;98923.56;5075933;28;20555;-69
2021/01/21 05:02:41;;;;;;;9.10;4.10;;;;;;;4.65;78.51;98904.94;5077141;28;20055;-69
2021/01/21 05:05:20;;;;;;;;;;;;;;;4.70;78.85;98905.81;5077541;28;20095;-68
2021/01/21 05:07:50;;;;;;;7.07;3.22;;;;;;;4.62;78.36;98867.00;5075970;28;19920;-69
2021/01/21 05:10:28;;;;;;;8.57;3.78;;;;;;;4.93;78.26;98906.03;5075656;28;20044;-68
2021/01/21 05:13:03;;;;;;;7.93;3.38;;;;;;;4.90;77.54;98899.25;5075766;28;20402;-68
2021/01/21 05:15:54;;;;;;;7.35;3.47;;;;;;;4.93;78.00;98901.81;5070978;28;20064;-68
2021/01/21 05:18:43;;;;;;;6.93;3.28;;;;;;;4.87;77.41;98899.22;5092731;28;20048;-68
2021/01/21 05:21:31;;;;;;;9.52;3.75;;;;;;;4.65;77.30;98867.03;5068056;28;20048;-68
2021/01/21 05:24:03;;;;;;;7.63;3.65;;;;;;;4.89;77.99;98897.59;5076541;28;20048;-69
2021/01/21 05:26:58;;;;;;;6.78;3.20;;;;;;;4.91;77.32;98900.97;5074263;28;20052;-67
2021/01/21 05:29:52;;;;;;;7.38;2.65;;;;;;;4.89;77.34;98897.59;5075256;28;20090;-68
2021/01/21 05:32:21;;;;;;;;;;;;;;;4.94;77.36;98901.00;5075880;28;20052;-67
2021/01/21 05:35:08;;;;;;;3.17;1.80;;;;;;;4.99;76.84;98901.84;5076434;28;19920;-68
2021/01/21 05:37:39;;;;;;;10.18;3.97;;;;;;;4.98;76.83;98905.25;5075074;28;20044;-67
2021/01/21 05:40:19;;;;;;;8.48;3.60;;;;;;;4.92;77.28;98902.66;5076275;28;20044;-68
2021/01/21 05:43:01;;;;;;;7.80;3.22;;;;;;;4.83;77.34;98894.97;5076179;28;20040;-67
2021/01/21 05:45:44;;;;;;;9.63;3.70;;;;;;;4.92;76.82;98902.66;5075222;28;20487;-68
2021/01/21 05:48:19;;;;;;;7.43;3.63;;;;;;;4.95;77.20;98892.56;5075134;28;20048;-68
2021/01/21 05:50:48;;;;;;;6.80;2.45;;;;;;;4.96;76.59;98896.81;5075419;28;20113;-68
2021/01/21 05:53:17;;;;;;;7.30;3.00;;;;;;;4.97;77.00;98895.09;5076016;28;20102;-68
2021/01/21 05:55:55;;;;;;;6.63;3.22;;;;;;;4.96;76.94;98899.31;5074804;28;20049;-68
2021/01/21 05:58:33;;;;;;;6.70;2.70;;;;;;;4.90;77.20;98899.25;5074699;28;20067;-68
2021/01/21 06:01:01;;;;;;;4.90;2.50;;;;;;;4.92;76.59;98897.59;5075801;28;20048;-68
2021/01/21 06:03:39;;;;;;;7.72;3.17;;;;;;;4.91;76.55;98895.91;5074426;28;20132;-67
2021/01/21 06:06:17;;;;;;;6.82;3.35;;;;;;;4.85;77.14;98890.78;5075621;28;20040;-68
2021/01/21 06:08:45;;;;;;;8.50;3.38;;;;;;;4.83;77.29;98897.50;5074707;28;20051;-68
2021/01/21 06:11:20;;;;;;;6.13;3.25;;;;;;;4.90;76.85;98896.72;5075632;28;20047;-67
2021/01/21 06:13:49;;;;;;;8.65;2.97;;;;;;;4.82;77.09;98897.50;5075937;28;20040;-68
2021/01/21 06:16:18;;;;;;;8.38;3.80;;;;;;;4.75;77.15;98904.19;5075429;28;20083;-68
2021/01/21 06:18:46;;;;;;;7.22;3.00;;;;;;;4.59;77.17;98861.91;5074287;28;20048;-68
2021/01/21 06:21:26;;;;;;;7.93;3.25;;;;;;;4.86;77.53;98891.63;5075386;28;20059;-68
2021/01/21 06:24:03;;;;;;;8.80;3.13;;;;;;;4.83;77.14;98900.03;5075608;28;20043;-68
2021/01/21 06:26:46;;;;;;;6.43;2.80;;;;;;;4.86;77.00;98899.22;5075631;28;20525;-68
2021/01/21 06:29:17;;;;;;;5.95;2.83;;;;;;;4.86;77.39;98905.13;5075628;28;20052;-68
2021/01/21 06:31:50;;;;;;;6.43;2.67;;;;;;;4.71;77.28;98872.13;5075243;28;20044;-68
2021/01/21 06:34:24;;;;;;;6.28;2.88;;;;;;;4.95;77.03;98892.56;5075251;28;20064;-68
2021/01/21 06:36:59;;;;;;;5.05;2.50;;;;;;;5.04;76.89;98907.00;5073905;28;20055;-67
2021/01/21 06:39:33;;;;;;;7.75;3.00;;;;;;;5.03;76.21;98901.06;5075091;28;20052;-68
2021/01/21 06:42:03;;;;;;;6.75;3.22;;;;;;;5.08;76.79;98899.44;5075075;28;20119;-67
2021/01/21 06:44:32;;;;;;;9.52;3.50;;;;;;;5.11;76.46;98904.50;5074980;28;20536;-67
2021/01/21 06:47:01;;;;;;;;;;;;;;;5.09;76.53;98901.09;5075363;28;20449;-67
2021/01/21 06:49:29;;;;;;;6.22;2.95;;;;;;;5.01;76.76;98907.81;5075193;28;19928;-68
2021/01/21 06:51:58;;;;;;;5.90;2.53;;;;;;;5.10;76.56;98897.75;5074873;28;20052;-68
2021/01/21 06:54:27;;;;;;;4.25;2.00;;;;;;;5.15;76.07;98901.19;5075015;28;20078;-67
2021/01/21 06:56:55;;;;;;;7.38;3.05;;;;;;;5.05;75.82;98893.50;5074792;28;20049;-68
2021/01/21 06:59:48;;;;;;;7.45;3.10;;;;;;;5.00;76.22;98902.72;5074561;28;20086;-68
2021/01/21 07:02:44;;;;;;;7.32;3.17;;;;;;;5.00;76.43;98893.47;5074697;28;20067;-69
2021/01/21 07:05:13;;;;;;;6.55;2.92;;;;;;;5.02;76.67;98903.56;5074569;28;20106;-68
2021/01/21 07:08:13;;;;;;;6.63;2.85;;;;;;;4.98;76.60;98910.28;5074564;28;20056;-68
2021/01/21 07:10:42;;;;;;;8.90;3.17;;;;;;;5.02;76.49;98904.44;5084402;28;20049;-68
2021/01/21 07:13:13;;;;;;;4.70;1.83;;;;;;;5.02;76.68;98901.91;5074498;28;20106;-68
2021/01/21 07:15:44;;;;;;;6.38;3.03;;;;;;;5.08;76.74;98909.56;5074430;28;20047;-68
2021/01/21 07:18:16;;;;;;;8.77;3.75;;;;;;;5.06;76.27;98905.31;5074450;28;20048;-68
2021/01/21 07:21:05;;;;;;;7.75;3.60;;;;;;;5.10;76.30;98905.34;5074642;28;20045;-68
2021/01/21 07:23:36;;;;;;;;;;;;;;;5.12;76.46;98911.25;5074969;28;20127;-68
2021/01/21 07:26:14;;;;;;;;;;;;;;;5.18;76.02;98916.34;5074642;28;19927;-68
2021/01/21 07:29:10;;;;;;;5.88;2.42;;;;;;;5.21;76.17;98908.81;5074209;28;19921;-68
2021/01/21 07:32:04;;;;;;;5.47;2.30;;;;;;;5.30;75.57;98908.88;5074099;28;20071;-68
2021/01/21 07:34:47;;;;;;;5.38;2.55;;;;;;;5.25;75.45;98907.16;5074012;28;20380;-68
2021/01/21 07:37:22;;;;;;;7.25;3.30;;;;;;;5.22;75.14;98907.97;5074392;28;20049;-68
2021/01/21 07:40:03;;;;;;;6.05;2.70;;;;;;;4.79;75.81;98826.72;5073965;28;20094;-68
2021/01/21 07:42:50;;;;;;;5.28;2.38;;;;;;;5.34;75.87;98900.47;5072777;28;20044;-68
2021/01/21 07:45:29;;;;;;;5.13;2.50;;;;;;;5.34;75.41;98897.94;5074081;28;20041;-68
2021/01/21 07:48:18;;;;;;;6.78;2.78;;;;;;;5.56;74.79;98898.09;5073867;28;20044;-68
2021/01/21 07:50:47;;;;;;;8.18;1.88;;;;;;;5.53;74.45;98903.13;5073680;28;20072;-68
2021/01/21 07:53:34;;;;;;;4.63;2.13;;;;;;;5.53;74.43;98898.91;5073794;28;20052;-68
2021/01/21 07:56:04;;;;;;;5.35;2.38;;;;;;;5.47;74.97;98892.97;5074006;28;20526;-68
2021/01/21 07:58:38;;;;;;;7.00;2.53;;;;;;;5.43;74.64;98882.84;5073653;28;20086;-68
2021/01/21 08:01:07;;;;;;;6.80;2.22;;;;;;;5.49;74.89;98891.31;5073631;28;20407;-67
2021/01/21 08:03:37;;;;;;;6.75;2.60;;;;;;;5.45;74.67;98879.47;5073867;28;20048;-68
2021/01/21 08:06:17;;;;;;;7.15;2.75;;;;;;;5.56;74.56;98893.03;5073476;28;20102;-68
2021/01/21 08:08:46;;;;;;;7.10;2.72;;;;;;;5.66;74.76;98885.53;5074177;28;20132;-68
2021/01/21 08:11:15;;;;;;;7.63;3.15;;;;;;;5.63;74.29;98865.25;5073838;28;20056;-68
2021/01/21 08:13:47;;;;;;;9.68;4.35;;;;;;;5.93;73.72;98885.69;5073616;28;20049;-68
2021/01/21 08:16:16;;;;;;;6.00;3.45;;;;;;;6.08;73.74;98895.03;5073386;28;20095;-68
2021/01/21 08:18:45;;;;;;;6.65;2.95;;;;;;;6.19;73.00;98903.50;5073396;28;20056;-68
2021/01/21 08:21:25;;;;;;;6.93;2.97;;;;;;;6.25;72.27;98885.81;5073491;28;20094;-68
2021/01/21 08:23:54;;;;;;;6.50;2.88;;;;;;;6.36;72.28;98881.63;5073315;28;20384;-67
2021/01/21 08:26:22;;;;;;;4.05;2.05;;;;;;;6.39;71.43;98881.63;5088931;28;20048;-68
2021/01/21 08:28:50;;;;;;;5.80;2.60;;;;;;;6.42;72.03;98891.78;5073354;28;20102;-68
2021/01/21 08:31:20;;;;;;;5.25;2.40;;;;;;;6.47;71.81;98876.59;5075484;28;20075;-68
2021/01/21 08:33:53;;;;;;;6.55;2.85;;;;;;;6.64;71.47;98887.63;5077443;28;20122;-68
2021/01/21 08:36:25;;;;;;;7.20;2.65;;;;;;;6.80;70.58;98888.47;5077475;28;20094;-68
2021/01/21 08:38:55;;;;;;;7.85;3.13;;;;;;;6.78;70.67;98885.09;5076075;28;20051;-68
2021/01/21 08:41:24;;;;;;;5.20;2.30;;;;;;;6.73;70.75;98885.94;5077800;28;20076;-68
2021/01/21 08:43:58;;;;;;;4.78;2.58;;;;;;;6.75;70.73;98896.06;5077363;28;20053;-68
2021/01/21 08:46:28;;;;;;;5.10;2.47;;;;;;;6.74;70.51;98890.16;5077537;28;20397;-68
2021/01/21 08:49:08;;;;;;;6.13;2.53;;;;;;;6.61;70.32;98878.31;5077002;28;20036;-68
2021/01/21 08:51:41;;;;;;;5.13;2.45;;;;;;;6.73;71.30;98872.41;5077157;28;20479;-68
2021/01/21 08:54:11;;;;;;;5.00;2.63;;;;;;;6.72;70.77;98881.72;5077003;28;20494;-68
2021/01/21 08:56:43;;;;;;;4.47;2.17;;;;;;;6.65;71.30;98882.53;5077228;28;20048;-68
2021/01/21 08:59:25;;;;;;;8.07;2.42;;;;;;;6.58;70.87;98888.44;5076726;28;20056;-68
2021/01/21 09:01:56;;;;;;;5.20;2.50;;;;;;;6.73;71.36;98888.47;5076852;28;20060;-68
2021/01/21 09:04:26;;;;;;;4.55;2.00;;;;;;;6.94;70.37;98887.66;5076733;28;20060;-68
2021/01/21 09:06:59;;;;;;;4.75;2.38;;;;;;;7.29;70.08;98874.97;5076755;28;20044;-67
2021/01/21 09:09:31;;;;;;;4.57;2.50;;;;;;;7.50;68.88;98874.09;5076736;28;20115;-67
2021/01/21 09:12:14;;;;;;;5.05;2.75;;;;;;;7.63;68.63;98876.59;5076954;28;20058;-68
2021/01/21 09:14:42;;;;;;;5.55;2.35;;;;;;;7.75;67.72;98891.00;5076570;28;20045;-67
2021/01/21 09:17:14;;;;;;;5.15;2.28;;;;;;;7.72;67.95;98889.31;5076546;28;20056;-68
2021/01/21 09:19:45;;;;;;;5.85;2.17;;;;;;;7.70;68.11;98893.50;5076999;28;20075;-67
2021/01/21 09:22:16;;;;;;;5.22;1.90;;;;;;;7.70;68.37;98893.50;5076592;28;20402;-67
2021/01/21 09:24:54;;;;;;;5.22;2.15;;;;;;;7.78;68.24;98896.91;5076718;28;20127;-67
2021/01/21 09:27:25;;;;;;;4.18;2.13;;;;;;;7.98;67.00;98900.25;5076496;28;20048;-68
2021/01/21 09:29:55;;;;;;;5.60;2.40;;;;;;;7.90;67.09;98899.41;5077027;28;20048;-68
2021/01/21 09:32:24;;;;;;;4.65;2.17;;;;;;;7.77;67.84;98882.53;5076257;28;20445;-68
2021/01/21 09:35:01;;;;;;;4.45;2.15;;;;;;;7.79;67.46;98888.44;5076391;28;20127;-68
2021/01/21 09:37:33;;;;;;;4.45;1.63;;;;;;;7.68;67.77;98895.22;5076477;28;20044;-67
2021/01/21 09:40:01;;;;;;;6.10;1.88;;;;;;;7.27;68.57;98846.22;5076281;28;20414;-68
2021/01/21 09:42:29;;;;;;;6.80;2.63;;;;;;;7.53;68.40;98890.19;5076039;28;20060;-68
2021/01/21 09:44:57;;;;;;;5.72;2.38;;;;;;;7.70;68.32;98893.50;5076064;28;20048;-67
2021/01/21 09:47:25;;;;;;;4.68;1.88;;;;;;;7.95;67.74;98900.25;5076134;28;20138;-66
2021/01/21 09:49:53;;;;;;;3.47;1.55;;;;;;;8.13;67.30;98901.88;5076048;28;20131;-67
2021/01/21 09:52:21;;;;;;;6.57;2.50;;;;;;;8.34;66.13;98893.34;5076277;28;20044;-67
2021/01/21 09:54:49;;;;;;;5.38;2.13;;;;;;;8.48;65.07;98904.28;5076153;28;20048;-67
2021/01/21 09:57:17;;;;;;;4.55;2.10;;;;;;;8.40;65.79;98918.72;5075848;28;20066;-67
2021/01/21 09:59:45;;;;;;;5.65;2.28;;;;;;;8.53;65.30;98903.44;5075656;28;20056;-67
2021/01/21 10:02:13;;;;;;;4.72;1.92;;;;;;;8.44;64.98;98900.94;5076070;28;20414;-67
2021/01/21 10:04:41;;;;;;;4.28;2.22;;;;;;;8.09;66.03;98897.66;5075712;28;20036;-67
2021/01/21 10:07:09;;;;;;;5.47;2.50;;;;;;;8.08;66.44;98879.03;5075759;28;20136;-67
2021/01/21 10:09:38;;;;;;;5.77;2.20;;;;;;;8.49;65.83;98908.53;5076000;28;20513;-67
2021/01/21 10:12:09;;;;;;;6.22;2.65;;;;;;;8.40;65.37;98873.81;5075626;28;20304;-67
2021/01/21 10:14:38;;;;;;;5.57;2.30;;;;;;;8.66;65.65;98891.50;5075562;28;20075;-67
2021/01/21 10:17:08;;;;;;;5.97;2.63;;;;;;;8.83;65.07;98893.94;5088070;28;20048;-67
2021/01/21 10:19:37;;;;;;;8.13;3.13;;;;;;;9.04;64.46;98899.72;5095639;28;20068;-67
2021/01/21 10:22:06;;;;;;;6.15;2.63;;;;;;;9.17;63.92;98890.28;5095932;28;20058;-67
2021/01/21 10:24:34;;;;;;;5.75;2.45;;;;;;;9.28;63.31;98891.91;5095360;28;20064;-67
2021/01/21 10:27:03;;;;;;;7.13;3.22;;;;;;;9.31;63.33;98893.53;5095551;28;20094;-67
2021/01/21 10:29:32;;;;;;;4.38;2.33;;;;;;;8.92;63.29;98848.91;5095567;28;20048;-67
2021/01/21 10:32:01;;;;;;;4.40;2.78;;;;;;;9.35;63.76;98887.59;5095779;28;20044;-67
2021/01/21 10:34:30;;;;;;;3.75;1.77;;;;;;;8.95;62.90;98817.50;5095451;28;20520;-67
2021/01/21 10:36:58;;;;;;;4.30;2.15;;;;;;;9.48;62.68;98890.88;5095404;28;20046;-67
2021/01/21 10:39:25;;;;;;;6.90;2.72;;;;;;;9.25;63.67;98889.38;5095432;28;20113;-67
2021/01/21 10:41:53;;;;;;;5.05;2.30;;;;;;;9.36;63.30;98897.75;5095525;28;20059;-67
2021/01/21 10:44:21;;;;;;;7.25;2.60;;;;;;;9.50;63.23;98889.16;5095139;28;20048;-67
2021/01/21 10:46:50;;;;;;;5.40;2.60;;;;;;;9.80;63.11;98892.25;5095171;28;20123;-68
2021/01/21 10:49:18;;;;;;;4.47;1.98;;;;;;;9.86;61.95;98899.81;5095479;28;20073;-67
2021/01/21 10:51:46;;;;;;;5.38;2.78;;;;;;;9.79;62.61;98889.72;5095085;28;20065;-67
2021/01/21 10:54:17;;;;;;;6.22;2.92;;;;;;;9.67;63.17;98877.09;5093299;28;20512;-67
2021/01/21 10:56:45;;;;;;;5.45;2.72;;;;;;;9.92;62.46;98888.72;5093774;28;20083;-67
2021/01/21 10:59:13;;;;;;;5.82;2.53;;;;;;;10.03;61.85;98894.53;5094972;28;20452;-67
2021/01/21 11:01:40;;;;;;;7.43;3.03;;;;;;;9.89;62.48;98879.41;5094850;28;20044;-67
2021/01/21 11:04:10;;;;;;;5.80;2.67;;;;;;;9.87;62.26;98886.22;5095098;28;20040;-67
2021/01/21 11:06:38;;;;;;;5.75;2.72;;;;;;;9.93;62.42;98888.69;5094635;28;20353;-67
2021/01/21 11:09:06;;;;;;;7.10;3.40;;;;;;;9.91;61.85;98864.94;5094706;28;20131;-67
2021/01/21 11:11:34;;;;;;;5.53;2.65;;;;;;;9.97;61.83;98881.88;5094687;28;20498;-68
2021/01/21 11:14:02;;;;;;;6.20;2.58;;;;;;;10.04;61.82;98889.44;5094521;28;20131;-67
2021/01/21 11:16:29;;;;;;;5.63;2.95;;;;;;;10.09;62.67;98876.63;5094617;28;20048;-67
2021/01/21 11:18:58;;;;;;;7.03;3.27;;;;;;;10.20;62.84;98879.91;5094473;28;20402;-67
2021/01/21 11:21:27;;;;;;;5.35;2.72;;;;;;;10.23;62.33;98884.97;5094510;28;20684;-67
2021/01/21 11:23:55;;;;;;;5.85;3.00;;;;;;;10.25;61.71;98872.19;5094750;28;20135;-67
2021/01/21 11:26:22;;;;;;;4.93;2.70;;;;;;;10.14;62.42;98874.91;5094322;28;20082;-67
2021/01/21 11:28:50;;;;;;;6.18;2.90;;;;;;;10.05;62.27;98872.44;5094347;28;20056;-67
2021/01/21 11:31:18;;;;;;;5.25;2.47;;;;;;;9.87;62.52;98865.84;5094353;28;20048;-67
2021/01/21 11:33:46;;;;;;;5.57;2.70;;;;;;;9.63;63.33;98865.25;5094253;28;20075;-67
2021/01/21 11:36:14;;;;;;;6.05;2.60;;;;;;;9.76;62.58;98862.56;5094183;28;20048;-67
2021/01/21 11:38:43;;;;;;;8.30;3.30;;;;;;;9.73;62.52;98854.09;5093703;28;20079;-67
2021/01/21 11:41:11;;;;;;;5.47;2.58;;;;;;;9.84;62.88;98849.72;5094009;28;20044;-67
2021/01/21 11:43:41;;;;;;;5.32;2.80;;;;;;;9.88;62.68;98842.03;5093453;28;20048;-67
2021/01/21 11:46:09;;;;;;;5.97;2.90;;;;;;;9.88;62.61;98846.28;5082440;28;20075;-67
2021/01/21 11:48:37;;;;;;;4.70;2.47;;;;;;;10.10;62.68;98842.63;5108867;28;20052;-67
2021/01/21 11:51:05;;;;;;;5.85;2.40;;;;;;;9.81;62.47;98786.06;5094271;28;20139;-67
2021/01/21 11:53:33;;;;;;;7.77;2.53;;;;;;;9.81;61.93;98802.19;5093629;28;20052;-67
2021/01/21 11:56:02;;;;;;;4.85;2.47;;;;;;;10.08;62.93;98836.69;5093874;28;20781;-67
2021/01/21 11:59:04;;;;;;;9.57;2.45;;;;;;;9.92;62.84;98842.84;5092051;28;20052;-67
2021/01/21 12:01:32;;;;;;;7.00;2.72;;;;;;;9.75;63.30;98829.44;5093836;28;20127;-67
2021/01/21 12:04:00;;;;;;;5.50;2.80;;;;;;;9.73;63.39;98831.16;5079232;28;20044;-67
2021/01/21 12:06:28;;;;;;;6.45;2.55;;;;;;;10.00;63.13;98830.84;5072597;28;20068;-67
2021/01/21 12:08:56;;;;;;;4.85;2.35;;;;;;;10.24;62.05;98827.19;5073632;28;20052;-67